KBHM/BHM METAR and TAF weather

Enter ICAO airport designator
Station Type Date Time Source
KBHM METAR 2020/09/23 01:53 UTC NOAA

KBHM 230153Z 06005KT 10SM OVC120 19/11 A3015 RMK AO2 SLP203 T01890111


Station Type Date Time Source
KBHM Decoded METAR 2020/09/23 01:53 UTC NOAA

BIRMINGHAM INT'L AIRPORT, AL, United States (KBHM) 33-34N 086-45W 197M
Sep 22, 2020 - 09:53 PM EDT / 2020.09.23 0153 UTC
Wind: from the ENE (060 degrees) at 6 MPH (5 KT):0
Visibility: 10 mile(s):0
Sky conditions: overcast
Temperature: 66.0 F (18.9 C)
Dew Point: 52.0 F (11.1 C)
Relative Humidity: 60%
Pressure (altimeter): 30.15 in. Hg (1020 hPa)
ob: KBHM 230153Z 06005KT 10SM OVC120 19/11 A3015 RMK AO2 SLP203 T01890111
cycle: 2

Station Type Date Time Source
KBHM TAF 2020/09/22 18:22 UTC NOAA

TAF KBHM 221720Z 2218/2318 10009KT P6SM BKN100
FM222300 08007KT P6SM BKN180 PROB30 2309/2314 4SM SHRA OVC035
FM231400 10005KT P6SM BKN100 PROB30 2314/2318 4SM SHRA OVC025

Example: see airport list